createdAt,value
2023-01-21T00:02:34.214Z,-1.33
2023-01-21T00:07:37.150Z,-1.71
2023-01-21T00:12:40.103Z,-1.64
2023-01-21T00:17:44.343Z,-1.51
2023-01-21T00:22:47.286Z,-1.54
2023-01-21T00:27:50.136Z,-1.60
2023-01-21T00:32:54.693Z,-1.78
2023-01-21T00:37:57.722Z,-1.79
2023-01-21T00:43:00.641Z,-1.45
2023-01-21T00:48:05.419Z,-1.92
2023-01-21T00:53:08.285Z,-1.79
2023-01-21T00:58:11.205Z,-1.81
2023-01-21T01:03:15.623Z,-1.84
2023-01-21T01:08:18.560Z,-1.83
2023-01-21T01:13:21.486Z,-1.85
2023-01-21T01:18:26.859Z,-1.99
2023-01-21T01:23:30.078Z,-2.01
2023-01-21T01:28:33.986Z,-2.14
2023-01-21T01:33:38.318Z,-2.14
2023-01-21T01:38:41.501Z,-2.17
2023-01-21T01:43:54.101Z,-2.01
2023-01-21T01:49:04.176Z,-2.10
2023-01-21T01:54:08.570Z,-2.26
2023-01-21T01:59:12.362Z,-2.10
2023-01-21T02:04:21.926Z,-2.05
2023-01-21T02:09:29.750Z,-2.28
2023-01-21T02:14:34.097Z,-2.14
2023-01-21T02:20:30.289Z,-2.09
2023-01-21T02:25:56.788Z,-2.00
2023-01-21T02:31:21.380Z,-2.09
2023-01-21T02:36:36.559Z,-2.26
2023-01-21T02:41:49.367Z,-2.09
2023-01-21T02:46:56.833Z,-2.18
2023-01-21T02:52:01.106Z,-2.20
2023-01-21T02:57:04.520Z,-2.23
2023-01-21T03:02:20.200Z,-2.38
2023-01-21T03:07:32.575Z,-2.20
2023-01-21T03:12:41.951Z,-2.31
2023-01-21T03:17:50.076Z,-2.28
2023-01-21T03:23:00.452Z,-2.36
2023-01-21T03:28:07.656Z,-2.53
2023-01-21T03:33:12.615Z,-2.58
2023-01-21T03:38:22.888Z,-2.54
2023-01-21T03:43:26.141Z,-2.62
2023-01-21T03:48:37.312Z,-2.54
2023-01-21T03:53:41.667Z,-2.43
2023-01-21T03:58:44.612Z,-2.36
2023-01-21T04:03:47.604Z,-2.36
2023-01-21T04:08:52.028Z,-2.21
2023-01-21T04:13:54.887Z,-2.41
2023-01-21T04:18:58.178Z,-2.45
2023-01-21T04:24:02.581Z,-2.70
2023-01-21T04:29:05.525Z,-2.59
2023-01-21T04:34:08.519Z,-2.31
2023-01-21T04:39:12.809Z,-2.58
2023-01-21T04:44:15.704Z,-2.57
2023-01-21T04:49:18.586Z,-2.54
2023-01-21T04:54:22.794Z,-2.65
2023-01-21T04:59:25.746Z,-2.46
2023-01-21T05:04:28.633Z,-2.56
2023-01-21T05:09:32.871Z,-2.43
2023-01-21T05:14:35.826Z,-2.31
2023-01-21T05:19:38.811Z,-2.49
2023-01-21T05:24:43.037Z,-2.41
2023-01-21T05:29:45.921Z,-2.55
2023-01-21T05:34:48.795Z,-2.51
2023-01-21T05:39:53.020Z,-2.39
2023-01-21T05:44:56.660Z,-2.69
2023-01-21T05:49:59.530Z,-2.56
2023-01-21T05:55:04.045Z,-2.50
2023-01-21T06:00:08.674Z,-2.61
2023-01-21T06:05:11.550Z,-2.52
2023-01-21T06:10:16.751Z,-2.67
2023-01-21T06:15:20.450Z,-2.60
2023-01-21T06:20:23.309Z,-2.62
2023-01-21T06:25:27.697Z,-2.74
2023-01-21T06:30:30.725Z,-2.65
2023-01-21T06:35:33.761Z,-2.74
2023-01-21T06:40:37.989Z,-2.60
2023-01-21T06:45:40.957Z,-2.48
2023-01-21T06:50:43.961Z,-2.64
2023-01-21T06:55:48.393Z,-2.67
2023-01-21T07:00:51.246Z,-2.67
2023-01-21T07:05:54.194Z,-2.64
2023-01-21T07:10:58.422Z,-2.50
2023-01-21T07:16:02.009Z,-2.42
2023-01-21T07:21:05.068Z,-2.39
2023-01-21T07:26:09.605Z,-2.39
2023-01-21T07:31:13.824Z,-2.29
2023-01-21T07:36:16.927Z,-2.32
2023-01-21T07:41:21.252Z,-2.40
2023-01-21T07:46:24.402Z,-2.25
2023-01-21T07:51:27.350Z,-2.26
2023-01-21T07:56:31.602Z,-2.40
2023-01-21T08:01:34.707Z,-2.38
2023-01-21T08:06:41.317Z,-2.35
2023-01-21T08:11:45.838Z,-2.18
2023-01-21T08:16:48.747Z,-2.17
2023-01-21T08:21:52.337Z,-2.14
2023-01-21T08:26:58.658Z,-2.28
2023-01-21T08:32:01.589Z,-2.22
2023-01-21T08:37:04.557Z,-2.21
2023-01-21T08:42:08.779Z,-2.24
2023-01-21T08:47:11.805Z,-1.93
2023-01-21T08:52:15.796Z,-2.21
2023-01-21T08:57:20.099Z,-2.21
2023-01-21T09:02:23.120Z,-1.87
2023-01-21T09:07:26.020Z,-1.86
2023-01-21T09:12:30.255Z,-1.91
2023-01-21T09:17:34.215Z,-1.70
2023-01-21T09:22:37.146Z,-1.96
2023-01-21T09:27:41.367Z,-1.68
2023-01-21T09:32:44.249Z,-1.69
2023-01-21T09:37:48.173Z,-1.62
2023-01-21T09:42:52.411Z,-1.47
2023-01-21T09:47:57.743Z,-1.46
2023-01-21T09:53:05.757Z,-1.51
2023-01-21T09:58:21.718Z,-1.42
2023-01-21T10:03:32.815Z,-1.49
2023-01-21T10:08:48.998Z,-1.46
2023-01-21T10:14:05.785Z,-1.41
2023-01-21T10:19:14.899Z,-1.32
2023-01-21T10:24:22.176Z,-1.23
2023-01-21T10:29:27.294Z,-1.18
2023-01-21T10:34:32.369Z,-1.24
2023-01-21T10:39:45.248Z,-1.30
2023-01-21T10:44:58.004Z,-1.27
2023-01-21T10:50:05.348Z,-1.18
2023-01-21T10:55:25.298Z,-1.11
2023-01-21T11:00:33.957Z,-1.20
2023-01-21T11:05:39.102Z,-1.20
2023-01-21T11:10:42.086Z,-1.02
2023-01-21T11:15:51.401Z,-0.88
2023-01-21T11:20:58.211Z,-1.03
2023-01-21T11:26:08.765Z,-0.80
2023-01-21T11:31:16.263Z,-0.99
2023-01-21T11:36:21.067Z,-0.72
2023-01-21T11:41:25.090Z,-0.78
2023-01-21T11:46:36.734Z,-0.52
2023-01-21T11:51:42.237Z,-0.76
2023-01-21T11:56:55.659Z,-0.70
2023-01-21T12:02:06.650Z,-0.75
2023-01-21T12:07:19.726Z,-0.66
2023-01-21T12:12:35.926Z,-0.60
2023-01-21T12:17:52.042Z,-0.85
2023-01-21T12:23:07.976Z,-0.62
2023-01-21T12:28:47.455Z,-0.76
2023-01-21T12:33:59.065Z,-0.70
2023-01-21T12:39:19.618Z,-0.60
2023-01-21T12:44:32.689Z,-0.69
2023-01-21T12:49:56.455Z,-0.59
2023-01-21T12:55:06.194Z,-0.43
2023-01-21T13:00:18.461Z,-0.44
2023-01-21T13:05:31.192Z,-0.23
2023-01-21T13:10:38.284Z,-0.35
2023-01-21T13:15:44.660Z,-0.48
2023-01-21T13:20:53.765Z,-0.31
2023-01-21T13:26:04.266Z,-0.11
2023-01-21T13:31:13.416Z,0.14
2023-01-21T13:36:33.528Z,0.37
2023-01-21T13:41:50.686Z,-0.21
2023-01-21T13:47:04.990Z,-0.20
2023-01-21T13:52:15.999Z,-0.30
2023-01-21T13:57:45.792Z,-0.29
2023-01-21T14:02:56.959Z,-0.45
2023-01-21T14:08:07.168Z,-0.23
2023-01-21T14:13:39.893Z,-0.60
2023-01-21T14:18:58.822Z,-0.49
2023-01-21T14:24:19.344Z,-0.53
2023-01-21T14:29:30.854Z,-0.59
2023-01-21T14:34:42.124Z,-0.36
2023-01-21T14:39:59.643Z,-0.57
2023-01-21T14:45:06.088Z,-0.63
2023-01-21T14:50:10.245Z,-0.67
2023-01-21T14:55:28.732Z,-0.61
2023-01-21T15:00:33.860Z,-0.62
2023-01-21T15:05:38.099Z,-0.56
2023-01-21T15:10:42.608Z,-0.69
2023-01-21T15:16:05.384Z,-0.66
2023-01-21T15:21:36.347Z,-0.60
2023-01-21T15:26:42.323Z,-0.63
2023-01-21T15:31:46.125Z,-0.71
2023-01-21T15:36:53.319Z,-0.69
2023-01-21T15:42:15.979Z,-0.66
2023-01-21T15:47:50.694Z,-0.69
2023-01-21T15:53:21.378Z,-0.69
2023-01-21T15:58:38.950Z,-0.50
2023-01-21T16:03:47.647Z,-0.62
2023-01-21T16:09:03.060Z,-0.54
2023-01-21T16:14:18.796Z,-0.58
2023-01-21T16:19:24.021Z,-0.62
2023-01-21T16:24:29.967Z,-0.63
2023-01-21T16:29:39.368Z,-0.54
2023-01-21T16:34:44.063Z,-0.50
2023-01-21T16:39:47.035Z,-0.55
2023-01-21T16:44:52.032Z,-0.60
2023-01-21T16:49:54.913Z,-0.61
2023-01-21T16:54:57.846Z,-0.59
2023-01-21T17:00:02.773Z,-0.62
2023-01-21T17:05:07.013Z,-0.61
2023-01-21T17:10:21.547Z,-0.56
2023-01-21T17:15:32.113Z,-0.50
2023-01-21T17:20:42.299Z,-0.43
2023-01-21T17:25:49.926Z,-0.44
2023-01-21T17:31:09.753Z,-0.47
2023-01-21T17:36:14.241Z,-0.53
2023-01-21T17:41:25.710Z,-0.51
2023-01-21T17:46:30.854Z,-0.49
2023-01-21T17:51:35.141Z,-0.28
2023-01-21T17:56:40.336Z,-0.39
2023-01-21T18:01:44.628Z,-0.35
2023-01-21T18:06:47.540Z,-0.41
2023-01-21T18:11:52.928Z,-0.54
2023-01-21T18:16:57.220Z,-0.36
2023-01-21T18:22:00.968Z,-0.36
2023-01-21T18:27:04.146Z,-0.29
2023-01-21T18:32:11.668Z,-0.48
2023-01-21T18:37:16.656Z,-0.31
2023-01-21T18:42:19.614Z,-0.50
2023-01-21T18:47:23.856Z,-0.54
2023-01-21T18:52:26.834Z,-0.46
2023-01-21T18:57:29.757Z,-0.35
2023-01-21T19:02:34.091Z,-0.35
2023-01-21T19:07:37.132Z,-0.44
2023-01-21T19:12:40.106Z,-0.28
2023-01-21T19:17:45.932Z,-0.40
2023-01-21T19:22:49.727Z,-0.33
2023-01-21T19:27:55.430Z,-0.13
2023-01-21T19:33:01.753Z,-0.53
2023-01-21T19:38:10.950Z,-0.39
2023-01-21T19:43:14.489Z,-0.35
2023-01-21T19:48:20.892Z,-0.37
2023-01-21T19:53:24.071Z,-0.36
2023-01-21T19:58:29.617Z,-0.25
2023-01-21T20:03:33.895Z,-0.02
2023-01-21T20:08:36.774Z,-0.20
2023-01-21T20:13:39.722Z,-0.16
2023-01-21T20:18:46.205Z,-0.22
2023-01-21T20:23:49.124Z,-0.19
2023-01-21T20:28:54.519Z,-0.08
2023-01-21T20:33:58.934Z,-0.16
2023-01-21T20:39:01.845Z,-0.08
2023-01-21T20:44:04.858Z,-0.20
2023-01-21T20:49:12.233Z,0.00
2023-01-21T20:54:15.134Z,0.07
2023-01-21T20:59:18.427Z,-0.05
2023-01-21T21:04:24.843Z,-0.12
2023-01-21T21:09:27.807Z,-0.04
2023-01-21T21:14:30.718Z,0.18
2023-01-21T21:19:34.914Z,0.04
2023-01-21T21:24:37.825Z,0.07
2023-01-21T21:29:40.749Z,-0.06
2023-01-21T21:34:45.001Z,-0.04
2023-01-21T21:39:47.862Z,-0.25
2023-01-21T21:44:50.778Z,-0.22
2023-01-21T21:49:55.070Z,-0.15
2023-01-21T21:54:57.954Z,0.20
2023-01-21T22:00:00.867Z,-0.06
2023-01-21T22:05:05.621Z,-0.01
2023-01-21T22:10:09.680Z,0.26
2023-01-21T22:15:12.845Z,0.27
2023-01-21T22:20:17.164Z,0.28
2023-01-21T22:25:20.496Z,0.39
2023-01-21T22:30:25.131Z,0.42
2023-01-21T22:35:29.460Z,0.30
2023-01-21T22:40:33.999Z,0.37
2023-01-21T22:45:37.031Z,0.09
2023-01-21T22:50:44.424Z,0.12
2023-01-21T22:55:53.990Z,0.27
2023-01-21T23:00:57.650Z,-0.01
2023-01-21T23:06:06.464Z,-0.09
2023-01-21T23:11:11.544Z,0.23
2023-01-21T23:16:17.223Z,0.43
2023-01-21T23:21:23.236Z,0.28
2023-01-21T23:26:26.126Z,0.30
2023-01-21T23:31:29.146Z,0.41
2023-01-21T23:36:33.543Z,0.48
2023-01-21T23:41:36.421Z,0.20
2023-01-21T23:46:39.450Z,-0.01
2023-01-21T23:51:43.696Z,0.05
2023-01-21T23:56:46.587Z,-0.10
